createdAt,value
2022-12-03T00:01:42.850Z,29.83
2022-12-03T00:04:44.703Z,30.12
2022-12-03T00:07:59.870Z,30.65
2022-12-03T00:11:14.806Z,27.05
2022-12-03T00:14:23.424Z,35.17
2022-12-03T00:17:31.862Z,30.05
2022-12-03T00:20:40.486Z,32.72
2022-12-03T00:23:48.870Z,28.77
2022-12-03T00:26:57.516Z,31.52
2022-12-03T00:30:05.974Z,32.97
2022-12-03T00:33:28.871Z,33.50
2022-12-03T00:36:30.725Z,30.80
2022-12-03T00:39:45.990Z,32.95
2022-12-03T00:42:54.138Z,34.13
2022-12-03T00:46:08.980Z,34.73
2022-12-03T00:49:10.918Z,36.92
2022-12-03T00:52:25.926Z,38.22
2022-12-03T00:55:33.897Z,33.22
2022-12-03T00:58:42.466Z,37.60
2022-12-03T01:01:50.966Z,34.23
2022-12-03T01:04:59.741Z,31.27
2022-12-03T01:08:14.957Z,31.20
2022-12-03T01:11:23.630Z,32.45
2022-12-03T01:14:37.889Z,34.00
2022-12-03T01:17:39.693Z,29.10
2022-12-03T01:20:55.042Z,37.67
2022-12-03T01:24:04.299Z,32.80
2022-12-03T01:27:18.926Z,36.25
2022-12-03T01:30:26.934Z,35.03
2022-12-03T01:33:42.206Z,32.83
2022-12-03T01:36:50.936Z,31.00
2022-12-03T01:39:59.827Z,31.98
2022-12-03T01:43:14.929Z,34.67
2022-12-03T01:46:30.559Z,35.15
2022-12-03T01:49:56.954Z,34.03
2022-12-03T01:53:11.985Z,31.30
2022-12-03T01:56:15.725Z,31.23
2022-12-03T01:59:38.920Z,31.02
2022-12-03T02:02:57.930Z,35.90
2022-12-03T02:06:05.898Z,31.93
2022-12-03T02:09:14.564Z,28.40
2022-12-03T02:12:44.988Z,35.53
2022-12-03T02:15:54.000Z,33.92
2022-12-03T02:19:10.951Z,34.30
2022-12-03T02:22:28.625Z,34.80
2022-12-03T02:25:43.937Z,32.50
2022-12-03T02:28:52.937Z,33.17
2022-12-03T02:32:14.929Z,32.88
2022-12-03T02:35:33.943Z,36.28
2022-12-03T02:38:36.292Z,33.30
2022-12-03T02:41:50.978Z,32.55
2022-12-03T02:44:53.947Z,35.00
2022-12-03T02:48:14.043Z,32.20
2022-12-03T02:51:22.949Z,29.65
2022-12-03T02:54:31.626Z,33.87
2022-12-03T02:57:43.030Z,30.58
2022-12-03T03:00:53.680Z,30.90
2022-12-03T03:04:03.003Z,33.88
2022-12-03T03:07:11.815Z,39.50
2022-12-03T03:10:22.969Z,30.90
2022-12-03T03:13:39.974Z,33.72
2022-12-03T03:16:55.014Z,34.00
2022-12-03T03:20:04.001Z,32.97
2022-12-03T03:23:18.156Z,30.45
2022-12-03T03:26:32.971Z,32.87
2022-12-03T03:29:35.642Z,31.27
2022-12-03T03:32:50.011Z,32.10
2022-12-03T03:35:59.342Z,31.90
2022-12-03T03:39:07.971Z,29.58
2022-12-03T03:42:17.491Z,29.13
2022-12-03T03:45:29.424Z,32.25
2022-12-03T03:48:38.836Z,29.63
2022-12-03T03:51:46.989Z,31.87
2022-12-03T03:54:55.886Z,34.17
2022-12-03T03:58:05.067Z,32.13
2022-12-03T04:01:14.649Z,37.28
2022-12-03T04:04:28.083Z,31.08
2022-12-03T04:07:36.657Z,34.13
2022-12-03T04:10:45.061Z,38.17
2022-12-03T04:13:53.682Z,31.27
2022-12-03T04:17:05.182Z,36.15
2022-12-03T04:20:13.789Z,33.65
2022-12-03T04:23:24.990Z,30.50
2022-12-03T04:26:37.808Z,31.58
2022-12-03T04:29:46.070Z,33.30
2022-12-03T04:33:01.316Z,31.73
2022-12-03T04:36:10.010Z,31.75
2022-12-03T04:39:25.194Z,36.97
2022-12-03T04:42:27.103Z,36.92
2022-12-03T04:45:42.156Z,36.43
2022-12-03T04:48:51.063Z,33.78
2022-12-03T04:52:07.029Z,33.10
2022-12-03T04:55:16.081Z,33.80
2022-12-03T04:58:24.660Z,36.55
2022-12-03T05:01:33.130Z,29.80
2022-12-03T05:04:48.065Z,33.47
2022-12-03T05:07:49.950Z,31.95
2022-12-03T05:11:05.166Z,38.25
2022-12-03T05:14:07.330Z,40.83
2022-12-03T05:17:22.125Z,35.73
2022-12-03T05:20:30.922Z,35.45
2022-12-03T05:23:39.095Z,34.83
2022-12-03T05:26:47.666Z,36.75
2022-12-03T05:29:56.089Z,37.60
2022-12-03T05:33:11.351Z,33.63
2022-12-03T05:36:26.128Z,33.45
2022-12-03T05:39:34.790Z,35.42
2022-12-03T05:42:43.062Z,34.72
2022-12-03T05:45:52.063Z,36.38
2022-12-03T05:49:00.099Z,31.43
2022-12-03T05:52:15.242Z,39.67
2022-12-03T05:55:17.982Z,40.75
2022-12-03T05:58:33.106Z,37.95
2022-12-03T06:01:41.627Z,35.95
2022-12-03T06:04:56.302Z,38.07
2022-12-03T06:07:58.337Z,34.40
2022-12-03T06:11:13.121Z,36.45
2022-12-03T06:14:21.865Z,35.20
2022-12-03T06:17:30.125Z,33.65
2022-12-03T06:20:46.182Z,37.60
2022-12-03T06:23:54.114Z,35.25
2022-12-03T06:27:09.110Z,34.83
2022-12-03T06:30:12.860Z,39.47
2022-12-03T06:33:34.135Z,33.00
2022-12-03T06:36:35.998Z,31.97
2022-12-03T06:39:51.311Z,33.05
2022-12-03T06:42:53.227Z,36.95
2022-12-03T06:46:09.218Z,42.83
2022-12-03T06:49:11.082Z,37.72
2022-12-03T06:52:26.210Z,38.43
2022-12-03T06:55:34.958Z,35.00
2022-12-03T06:58:43.175Z,36.97
2022-12-03T07:01:58.197Z,29.85
2022-12-03T07:05:00.120Z,37.25
2022-12-03T07:08:15.174Z,31.77
2022-12-03T07:11:17.459Z,46.03
2022-12-03T07:14:32.214Z,39.55
2022-12-03T07:17:42.186Z,32.70
2022-12-03T07:20:57.134Z,32.97
2022-12-03T07:23:58.953Z,35.83
2022-12-03T07:27:14.235Z,41.37
2022-12-03T07:30:23.278Z,38.72
2022-12-03T07:33:38.437Z,34.22
2022-12-03T07:36:47.231Z,40.70
2022-12-03T07:39:55.821Z,35.60
2022-12-03T07:43:04.162Z,37.90
2022-12-03T07:46:12.887Z,37.55
2022-12-03T07:49:21.238Z,38.20
2022-12-03T07:52:29.714Z,40.75
2022-12-03T07:55:45.241Z,38.53
2022-12-03T07:58:54.213Z,46.13
2022-12-03T08:02:03.885Z,38.58
2022-12-03T08:05:13.206Z,35.90
2022-12-03T08:08:22.859Z,41.30
2022-12-03T08:11:39.187Z,33.97
2022-12-03T08:14:47.198Z,42.53
2022-12-03T08:17:59.096Z,37.90
2022-12-03T08:21:07.150Z,41.08
2022-12-03T08:24:25.262Z,44.17
2022-12-03T08:27:27.123Z,43.40
2022-12-03T08:30:42.190Z,42.10
2022-12-03T08:34:01.197Z,36.92
2022-12-03T08:37:23.190Z,32.92
2022-12-03T08:40:41.218Z,31.48
2022-12-03T08:43:56.195Z,32.17
2022-12-03T08:47:15.982Z,33.45
2022-12-03T08:50:37.242Z,36.63
2022-12-03T08:54:01.297Z,33.05
2022-12-03T08:57:24.787Z,32.88
2022-12-03T09:00:39.320Z,35.50
2022-12-03T09:03:51.058Z,37.83
2022-12-03T09:07:06.282Z,32.13
2022-12-03T09:10:22.398Z,27.67
2022-12-03T09:13:24.303Z,33.45
2022-12-03T09:16:39.396Z,35.90
2022-12-03T09:19:45.706Z,31.20
2022-12-03T09:23:01.234Z,33.28
2022-12-03T09:26:09.267Z,30.00
2022-12-03T09:29:18.087Z,33.75
2022-12-03T09:32:26.332Z,34.90
2022-12-03T09:35:41.646Z,30.08
2022-12-03T09:38:56.258Z,28.45
2022-12-03T09:42:05.278Z,30.35
2022-12-03T09:45:21.778Z,25.83
2022-12-03T09:48:23.830Z,29.47
2022-12-03T09:51:42.303Z,31.02
2022-12-03T09:54:51.357Z,31.05
2022-12-03T09:57:59.918Z,29.05
2022-12-03T10:01:08.396Z,29.23
2022-12-03T10:04:18.220Z,30.30
2022-12-03T10:07:27.417Z,29.23
2022-12-03T10:10:36.959Z,29.33
2022-12-03T10:13:46.314Z,33.72
2022-12-03T10:16:55.652Z,34.45
2022-12-03T10:20:11.295Z,26.67
2022-12-03T10:23:30.341Z,31.75
2022-12-03T10:26:46.301Z,27.13
2022-12-03T10:30:03.574Z,29.60
2022-12-03T10:33:20.420Z,28.12
2022-12-03T10:36:28.812Z,26.07
2022-12-03T10:39:37.334Z,30.15
2022-12-03T10:42:45.953Z,30.27
2022-12-03T10:46:16.463Z,28.60
2022-12-03T10:49:24.928Z,27.62
2022-12-03T10:52:40.340Z,26.17
2022-12-03T10:55:50.630Z,26.20
2022-12-03T10:59:00.998Z,24.95
2022-12-03T11:02:14.354Z,24.63
2022-12-03T11:05:26.838Z,23.10
2022-12-03T11:08:41.406Z,25.97
2022-12-03T11:11:56.366Z,27.45
2022-12-03T11:14:58.981Z,20.83
2022-12-03T11:18:13.362Z,25.55
2022-12-03T11:21:22.381Z,21.40
2022-12-03T11:24:39.410Z,22.87
2022-12-03T11:28:34.363Z,23.07
2022-12-03T11:31:46.055Z,23.77
2022-12-03T11:35:01.457Z,21.50
2022-12-03T11:38:36.491Z,21.20
2022-12-03T11:42:14.834Z,22.03
2022-12-03T11:45:29.377Z,27.57
2022-12-03T11:48:45.243Z,21.92
2022-12-03T11:51:54.387Z,23.15
2022-12-03T11:55:22.360Z,21.67
2022-12-03T11:58:31.689Z,19.57
2022-12-03T12:01:47.404Z,24.23
2022-12-03T12:04:55.991Z,21.50
2022-12-03T12:08:05.524Z,23.42
2022-12-03T12:11:35.413Z,24.02
2022-12-03T12:14:43.360Z,23.57
2022-12-03T12:17:58.373Z,22.23
2022-12-03T12:21:26.940Z,25.42
2022-12-03T12:25:02.515Z,28.15
2022-12-03T12:28:17.407Z,25.08
2022-12-03T12:31:25.472Z,23.70
2022-12-03T12:34:49.378Z,20.43
2022-12-03T12:38:00.181Z,21.37
2022-12-03T12:41:16.400Z,21.00
2022-12-03T12:44:31.438Z,23.17
2022-12-03T12:47:35.643Z,22.70
2022-12-03T12:50:54.488Z,22.03
2022-12-03T12:53:57.319Z,21.52
2022-12-03T12:57:20.439Z,23.40
2022-12-03T13:00:23.762Z,30.02
2022-12-03T13:03:41.482Z,24.90
2022-12-03T13:06:53.469Z,23.70
2022-12-03T13:10:02.493Z,22.15
2022-12-03T13:13:29.406Z,27.27
2022-12-03T13:16:32.648Z,22.65
2022-12-03T13:19:52.172Z,23.43
2022-12-03T13:22:57.903Z,21.47
2022-12-03T13:26:36.538Z,23.67
2022-12-03T13:29:40.776Z,23.58
2022-12-03T13:32:55.437Z,24.12
2022-12-03T13:36:23.450Z,21.30
2022-12-03T13:39:37.443Z,21.20
2022-12-03T13:42:46.198Z,22.40
2022-12-03T13:46:00.546Z,23.70
2022-12-03T13:49:09.515Z,20.92
2022-12-03T13:52:30.462Z,22.20
2022-12-03T13:55:44.667Z,24.63
2022-12-03T13:58:53.483Z,22.73
2022-12-03T14:02:08.604Z,21.83
2022-12-03T14:05:10.571Z,24.05
2022-12-03T14:08:25.538Z,19.37
2022-12-03T14:11:34.098Z,22.33
2022-12-03T14:14:48.669Z,21.45
2022-12-03T14:17:50.490Z,23.42
2022-12-03T14:21:05.500Z,21.27
2022-12-03T14:24:14.487Z,24.73
2022-12-03T14:27:23.515Z,21.37
2022-12-03T14:30:32.573Z,20.35
2022-12-03T14:33:54.542Z,23.20
2022-12-03T14:37:09.467Z,24.87
2022-12-03T14:40:21.723Z,20.23
2022-12-03T14:43:36.507Z,20.80
2022-12-03T14:46:45.127Z,22.17
2022-12-03T14:49:59.606Z,24.02
2022-12-03T14:53:14.556Z,21.40
2022-12-03T14:56:29.582Z,23.43
2022-12-03T14:59:31.655Z,23.07
2022-12-03T15:02:46.573Z,23.87
2022-12-03T15:06:01.593Z,24.02
2022-12-03T15:09:03.922Z,20.90
2022-12-03T15:12:18.634Z,24.03
2022-12-03T15:15:20.586Z,24.83
2022-12-03T15:18:35.617Z,19.37
2022-12-03T15:21:43.537Z,25.37
2022-12-03T15:24:58.535Z,21.05
2022-12-03T15:28:07.626Z,23.43
2022-12-03T15:31:16.147Z,20.60
2022-12-03T15:34:30.595Z,23.08
2022-12-03T15:37:38.522Z,20.67
2022-12-03T15:40:53.562Z,23.73
2022-12-03T15:43:58.068Z,24.77
2022-12-03T15:47:12.566Z,23.33
2022-12-03T15:50:27.624Z,21.60
2022-12-03T15:53:36.301Z,22.98
2022-12-03T15:56:44.533Z,21.75
2022-12-03T15:59:59.652Z,22.13
2022-12-03T16:03:01.587Z,27.00
2022-12-03T16:06:16.610Z,22.00
2022-12-03T16:09:23.739Z,26.30
2022-12-03T16:12:41.557Z,25.58
2022-12-03T16:15:49.724Z,23.40
2022-12-03T16:19:04.705Z,23.60
2022-12-03T16:22:13.711Z,24.00
2022-12-03T16:25:22.269Z,20.67
2022-12-03T16:28:30.642Z,26.45
2022-12-03T16:31:39.451Z,25.90
2022-12-03T16:34:47.686Z,23.50
2022-12-03T16:37:56.342Z,26.33
2022-12-03T16:41:04.658Z,26.52
2022-12-03T16:44:13.259Z,24.90
2022-12-03T16:47:21.646Z,24.70
2022-12-03T16:50:30.660Z,33.60
2022-12-03T16:53:45.697Z,27.73
2022-12-03T16:56:47.510Z,25.23
2022-12-03T17:00:02.625Z,26.42
2022-12-03T17:03:05.895Z,24.60
2022-12-03T17:06:20.667Z,30.70
2022-12-03T17:09:22.914Z,26.83
2022-12-03T17:13:07.694Z,31.17
2022-12-03T17:16:05.674Z,27.08
2022-12-03T17:19:14.642Z,28.37
2022-12-03T17:22:22.674Z,32.47
2022-12-03T17:25:31.301Z,30.95
2022-12-03T17:28:45.654Z,29.80
2022-12-03T17:32:00.752Z,32.03
2022-12-03T17:35:10.310Z,29.67
2022-12-03T17:38:24.650Z,27.43
2022-12-03T17:41:33.361Z,36.72
2022-12-03T17:44:41.716Z,29.77
2022-12-03T17:47:56.731Z,26.65
2022-12-03T17:51:05.363Z,33.07
2022-12-03T17:54:19.658Z,32.63
2022-12-03T17:57:21.569Z,32.55
2022-12-03T18:00:36.682Z,34.15
2022-12-03T18:03:38.561Z,30.70
2022-12-03T18:06:57.503Z,31.73
2022-12-03T18:10:15.727Z,32.13
2022-12-03T18:13:23.671Z,41.00
2022-12-03T18:16:32.726Z,33.50
2022-12-03T18:19:41.322Z,36.03
2022-12-03T18:22:49.417Z,33.97
2022-12-03T18:25:57.737Z,31.00
2022-12-03T18:29:12.776Z,31.98
2022-12-03T18:32:28.146Z,31.65
2022-12-03T18:35:50.685Z,36.05
2022-12-03T18:38:54.680Z,37.23
2022-12-03T18:42:22.718Z,34.17
2022-12-03T18:45:30.682Z,32.30
2022-12-03T18:48:46.717Z,33.33
2022-12-03T18:51:50.396Z,33.33
2022-12-03T18:55:06.724Z,36.93
2022-12-03T18:58:08.526Z,31.33
2022-12-03T19:01:27.735Z,36.58
2022-12-03T19:04:36.350Z,36.42
2022-12-03T19:07:44.845Z,33.40
2022-12-03T19:11:02.742Z,40.27
2022-12-03T19:14:04.883Z,31.57
2022-12-03T19:17:19.726Z,34.17
2022-12-03T19:20:21.749Z,36.85
2022-12-03T19:23:37.723Z,34.17
2022-12-03T19:26:39.534Z,35.70
2022-12-03T19:29:56.018Z,33.63
2022-12-03T19:33:17.846Z,37.20
2022-12-03T19:36:33.068Z,32.33
2022-12-03T19:39:41.915Z,31.87
2022-12-03T19:42:51.178Z,35.47
2022-12-03T19:46:00.804Z,34.87
2022-12-03T19:49:16.773Z,30.27
2022-12-03T19:52:18.637Z,32.20
2022-12-03T19:55:33.758Z,33.00
2022-12-03T19:58:36.841Z,33.97
2022-12-03T20:01:51.906Z,34.70
2022-12-03T20:05:00.772Z,31.50
2022-12-03T20:08:15.851Z,32.08
2022-12-03T20:11:27.492Z,34.10
2022-12-03T20:14:35.803Z,33.03
2022-12-03T20:17:50.848Z,39.20
2022-12-03T20:20:57.294Z,34.92
2022-12-03T20:24:12.877Z,34.13
2022-12-03T20:27:18.312Z,36.72
2022-12-03T20:30:36.822Z,38.10
2022-12-03T20:33:49.191Z,36.10
2022-12-03T20:37:03.884Z,35.90
2022-12-03T20:40:06.390Z,33.15
2022-12-03T20:43:21.870Z,37.53
2022-12-03T20:46:32.895Z,34.63
2022-12-03T20:49:41.446Z,32.90
2022-12-03T20:53:22.591Z,39.90
2022-12-03T20:56:32.901Z,36.63
2022-12-03T20:59:47.855Z,51.28
2022-12-03T21:03:02.828Z,37.07
2022-12-03T21:06:12.685Z,37.00
2022-12-03T21:09:20.847Z,31.00
2022-12-03T21:12:29.602Z,36.80
2022-12-03T21:15:37.847Z,32.10
2022-12-03T21:18:47.042Z,35.23
2022-12-03T21:21:55.810Z,35.97
2022-12-03T21:25:04.767Z,39.75
2022-12-03T21:28:19.886Z,38.47
2022-12-03T21:31:28.478Z,34.92
2022-12-03T21:34:36.907Z,34.53
2022-12-03T21:37:58.847Z,37.17
2022-12-03T21:41:14.818Z,34.78
2022-12-03T21:44:29.904Z,33.90
2022-12-03T21:47:38.487Z,43.38
2022-12-03T21:50:46.963Z,36.37
2022-12-03T21:53:55.466Z,37.77
2022-12-03T21:57:09.914Z,34.97
2022-12-03T22:00:18.890Z,36.30
2022-12-03T22:03:33.895Z,41.25
2022-12-03T22:06:35.667Z,36.80
2022-12-03T22:09:50.882Z,38.73
2022-12-03T22:12:52.671Z,35.75
2022-12-03T22:16:11.919Z,41.05
2022-12-03T22:19:19.887Z,36.10
2022-12-03T22:22:34.866Z,38.10
2022-12-03T22:25:36.630Z,36.37
2022-12-03T22:28:54.907Z,33.80
2022-12-03T22:32:10.941Z,36.50
2022-12-03T22:35:19.539Z,36.05
2022-12-03T22:38:35.875Z,36.87
2022-12-03T22:41:43.876Z,33.90
2022-12-03T22:44:52.450Z,33.90
2022-12-03T22:48:06.889Z,35.00
2022-12-03T22:51:26.903Z,34.40
2022-12-03T22:54:35.467Z,37.63
2022-12-03T22:57:50.950Z,32.57
2022-12-03T23:01:03.306Z,36.72
2022-12-03T23:04:18.978Z,34.35
2022-12-03T23:07:27.587Z,34.25
2022-12-03T23:10:36.010Z,35.27
2022-12-03T23:13:45.151Z,30.60
2022-12-03T23:16:53.935Z,39.53
2022-12-03T23:20:08.953Z,36.13
2022-12-03T23:23:17.911Z,31.80
2022-12-03T23:26:26.822Z,36.27
2022-12-03T23:29:34.934Z,38.87
2022-12-03T23:32:43.621Z,35.72
2022-12-03T23:35:57.950Z,37.22
2022-12-03T23:39:06.610Z,41.95
2022-12-03T23:42:14.960Z,37.50
2022-12-03T23:45:29.951Z,33.47
2022-12-03T23:48:32.196Z,33.75
2022-12-03T23:51:47.921Z,35.35
2022-12-03T23:55:02.913Z,32.97
2022-12-03T23:58:13.910Z,36.43
